Time;durP1;ratioP1;P1;durP2;ratioP2;P2;SDS_P1;SDS_P2;PMS_P1;PMS_P2;Temp;Humidity;BMP_temperature;BMP_pressure;BME280_temperature;BME280_humidity;BME280_pressure;Samples;Min_cycle;Max_cycle;Signal;HPM_P1;HPM_P2
2022/03/10 00:01:14;;;;;;;14.40;6.43;;;;;2.40;101859.00;;;;4893769;29;20245;-70
2022/03/10 00:04:00;;;;;;;11.87;5.97;;;;;2.30;101857.00;;;;4894417;29;20234;-70
2022/03/10 00:06:48;;;;;;;16.93;6.23;;;;;2.40;101861.00;;;;4895738;29;20253;-69
2022/03/10 00:09:35;;;;;;;13.90;6.30;;;;;2.30;101853.00;;;;4893542;29;20246;-71
2022/03/10 00:12:21;;;;;;;13.20;6.93;;;;;2.20;101848.00;;;;4900995;29;20245;-69
2022/03/10 00:15:08;;;;;;;10.90;6.33;;;;;2.20;101857.00;;;;4910573;29;20233;-71
2022/03/10 00:17:55;;;;;;;13.27;6.93;;;;;2.10;101863.00;;;;4907754;29;20894;-69
2022/03/10 00:20:41;;;;;;;11.53;6.37;;;;;2.30;101856.00;;;;4906520;29;20241;-70
2022/03/10 00:23:29;;;;;;;12.77;6.77;;;;;2.30;101861.00;;;;4910266;29;20729;-70
2022/03/10 00:26:15;;;;;;;13.57;6.77;;;;;2.10;101871.00;;;;4902990;29;20229;-70
2022/03/10 00:29:04;;;;;;;15.63;6.57;;;;;2.10;101870.00;;;;4909517;29;20233;-69
2022/03/10 00:31:50;;;;;;;10.67;5.97;;;;;2.10;101881.00;;;;4909915;29;20991;-70
2022/03/10 00:34:36;;;;;;;12.07;6.17;;;;;2.20;101885.00;;;;4907048;29;20385;-69
2022/03/10 00:37:23;;;;;;;11.23;6.30;;;;;2.10;101880.00;;;;4899932;29;20237;-70
2022/03/10 00:40:12;;;;;;;13.80;6.97;;;;;2.20;101878.00;;;;4898013;29;20236;-69
2022/03/10 00:42:59;;;;;;;13.80;7.00;;;;;2.00;101877.00;;;;4906054;29;20242;-69
2022/03/10 00:45:45;;;;;;;12.37;6.77;;;;;2.10;101889.00;;;;4906418;29;20374;-71
2022/03/10 00:48:31;;;;;;;17.63;7.40;;;;;2.00;101882.00;;;;4901054;29;20236;-71
2022/03/10 00:51:17;;;;;;;13.50;7.27;;;;;2.10;101874.00;;;;4900654;29;20237;-69
2022/03/10 00:54:04;;;;;;;18.70;6.53;;;;;2.00;101873.00;;;;4907800;29;20237;-68
2022/03/10 00:56:51;;;;;;;11.33;6.23;;;;;1.80;101886.00;;;;4907693;29;20721;-70
2022/03/10 00:59:37;;;;;;;14.63;7.27;;;;;1.90;101891.00;;;;4909845;29;20723;-69
2022/03/10 01:02:24;;;;;;;12.10;6.50;;;;;2.00;101850.00;;;;4894559;29;20241;-69
2022/03/10 01:05:11;;;;;;;12.97;6.93;;;;;1.90;101874.00;;;;4897784;29;20229;-70
2022/03/10 01:07:57;;;;;;;15.90;6.63;;;;;2.00;101872.00;;;;4875404;29;20354;-68
2022/03/10 01:10:43;;;;;;;17.63;6.33;;;;;1.90;101875.00;;;;4908533;29;20253;-69
2022/03/10 01:13:32;;;;;;;14.20;6.40;;;;;1.80;101880.00;;;;4905920;29;20373;-70
2022/03/10 01:16:18;;;;;;;12.17;6.43;;;;;1.90;101872.00;;;;4909630;29;20237;-69
2022/03/10 01:19:05;;;;;;;14.97;7.80;;;;;1.80;101875.00;;;;4912719;29;20728;-69
2022/03/10 01:21:51;;;;;;;11.73;6.17;;;;;1.80;101873.00;;;;4913121;29;20245;-70
2022/03/10 01:24:39;;;;;;;15.40;6.70;;;;;1.80;101879.00;;;;4911188;29;20237;-69
2022/03/10 01:27:25;;;;;;;15.00;7.67;;;;;1.80;101869.00;;;;4910882;29;20245;-69
2022/03/10 01:30:13;;;;;;;18.97;7.50;;;;;1.80;101861.00;;;;4907981;29;20914;-69
2022/03/10 01:33:00;;;;;;;14.63;7.10;;;;;1.80;101856.00;;;;4917353;29;20236;-70
2022/03/10 01:35:46;;;;;;;11.83;6.63;;;;;1.70;101860.00;;;;4917860;29;20237;-70
2022/03/10 01:38:33;;;;;;;13.53;6.67;;;;;1.80;101860.00;;;;4924937;29;20241;-71
2022/03/10 01:41:19;;;;;;;13.53;7.73;;;;;1.70;101859.00;;;;4908248;29;20285;-69
2022/03/10 01:44:07;;;;;;;11.83;6.77;;;;;1.60;101862.00;;;;4915736;29;20282;-70
2022/03/10 01:46:56;;;;;;;11.57;6.47;;;;;1.70;101862.00;;;;4884997;29;20233;-70
2022/03/10 01:49:42;;;;;;;13.30;7.00;;;;;1.70;101861.00;;;;4910811;29;20613;-71
2022/03/10 01:52:30;;;;;;;12.57;6.87;;;;;1.70;101857.00;;;;4909202;29;20311;-70
2022/03/10 01:55:16;;;;;;;18.50;6.93;;;;;1.60;101874.00;;;;4908848;29;20312;-70
2022/03/10 01:58:03;;;;;;;14.43;7.17;;;;;1.60;101877.00;;;;4912396;29;20232;-70
2022/03/10 02:00:49;;;;;;;9.97;6.57;;;;;1.40;101860.00;;;;4916301;29;20237;-69
2022/03/10 02:03:37;;;;;;;14.13;6.97;;;;;1.60;101869.00;;;;4915538;29;20628;-70
2022/03/10 02:06:24;;;;;;;13.17;6.80;;;;;1.70;101844.00;;;;4910271;29;20628;-68
2022/03/10 02:12:14;;;;;;;14.17;7.27;;;;;1.50;101870.00;;;;4912417;29;20336;-69
2022/03/10 02:18:16;;;;;;;13.43;6.43;;;;;1.40;101864.00;;;;4909551;29;20285;-68
2022/03/10 02:21:04;;;;;;;17.63;7.27;;;;;1.50;101845.00;;;;4909911;29;20378;-70
2022/03/10 02:23:51;;;;;;;13.73;6.73;;;;;1.40;101854.00;;;;4912708;29;20318;-69
2022/03/10 02:26:37;;;;;;;14.97;7.17;;;;;1.20;101846.00;;;;4910235;29;20245;-68
2022/03/10 02:29:26;;;;;;;13.23;6.60;;;;;1.20;101845.00;;;;4908242;29;20305;-67
2022/03/10 02:32:12;;;;;;;11.87;7.10;;;;;1.10;101852.00;;;;4909906;29;20401;-69
2022/03/10 02:34:59;;;;;;;12.90;6.47;;;;;1.30;101844.00;;;;4913100;29;20348;-69
2022/03/10 02:37:46;;;;;;;10.97;6.13;;;;;1.40;101847.00;;;;4909095;29;20256;-68
2022/03/10 02:40:33;;;;;;;16.10;6.47;;;;;1.30;101837.00;;;;4904426;29;20241;-69
2022/03/10 02:43:21;;;;;;;15.03;6.83;;;;;1.20;101849.00;;;;4903255;29;20245;-70
2022/03/10 02:46:07;;;;;;;12.03;6.27;;;;;1.20;101831.00;;;;4911113;29;20700;-70
2022/03/10 02:48:53;;;;;;;16.83;6.83;;;;;1.20;101835.00;;;;4908565;29;20229;-71
2022/03/10 02:51:41;;;;;;;14.07;6.93;;;;;1.20;101828.00;;;;4910087;29;20385;-69
2022/03/10 02:54:28;;;;;;;10.43;5.87;;;;;1.10;101831.00;;;;4903823;29;20237;-71
2022/03/10 02:57:16;;;;;;;12.53;7.13;;;;;1.10;101833.00;;;;4908867;29;20350;-72
2022/03/10 03:00:04;;;;;;;13.63;6.50;;;;;1.20;101834.00;;;;4911277;29;20272;-70
2022/03/10 03:02:50;;;;;;;13.30;6.07;;;;;1.30;101836.00;;;;4909391;29;20615;-70
2022/03/10 03:05:36;;;;;;;12.60;6.70;;;;;1.20;101840.00;;;;4904338;29;20748;-70
2022/03/10 03:08:23;;;;;;;11.87;7.10;;;;;1.00;101832.00;;;;4906057;29;20298;-69
2022/03/10 03:11:10;;;;;;;12.00;6.43;;;;;0.90;101834.00;;;;4931210;29;20229;-71
2022/03/10 03:13:58;;;;;;;10.70;6.50;;;;;1.00;101839.00;;;;4935811;29;20259;-73
2022/03/10 03:16:44;;;;;;;10.47;6.27;;;;;1.10;101845.00;;;;4926441;29;20258;-71
2022/03/10 03:19:30;;;;;;;12.93;6.73;;;;;1.00;101835.00;;;;4927530;29;20240;-71
2022/03/10 03:22:16;;;;;;;9.57;6.23;;;;;0.90;101843.00;;;;4935454;29;20225;-71
2022/03/10 03:25:06;;;;;;;13.53;7.43;;;;;1.00;101852.00;;;;4935362;28;20229;-73
2022/03/10 03:27:52;;;;;;;14.70;5.73;;;;;0.90;101837.00;;;;4937126;29;20634;-71
2022/03/10 03:30:40;;;;;;;16.37;7.07;;;;;1.00;101851.00;;;;4935265;28;20250;-70
2022/03/10 03:33:27;;;;;;;14.90;7.80;;;;;0.90;101848.00;;;;4932643;29;20218;-72
2022/03/10 03:36:13;;;;;;;12.13;6.60;;;;;1.00;101856.00;;;;4934577;29;20233;-72
2022/03/10 03:38:59;;;;;;;13.60;6.53;;;;;1.00;101861.00;;;;4927966;29;20950;-69
2022/03/10 03:41:46;;;;;;;13.00;7.43;;;;;1.10;101849.00;;;;4910985;29;20253;-69
2022/03/10 03:44:32;;;;;;;12.47;6.87;;;;;1.00;101861.00;;;;4915599;29;20265;-69
2022/03/10 03:47:19;;;;;;;11.67;7.20;;;;;0.80;101863.00;;;;4906107;29;20795;-70
2022/03/10 03:50:07;;;;;;;11.90;6.63;;;;;0.80;101871.00;;;;4910790;29;20625;-71
2022/03/10 03:52:53;;;;;;;18.77;6.90;;;;;0.90;101862.00;;;;4911565;29;20248;-70
2022/03/10 03:55:39;;;;;;;16.07;7.03;;;;;1.00;101870.00;;;;4908982;29;20237;-70
2022/03/10 03:58:26;;;;;;;11.63;6.10;;;;;0.90;101875.00;;;;4921652;29;20237;-73
2022/03/10 04:01:12;;;;;;;13.87;6.40;;;;;0.90;101881.00;;;;4921442;29;20618;-70
2022/03/10 04:04:00;;;;;;;12.73;6.53;;;;;0.80;101858.00;;;;4908166;29;20505;-69
2022/03/10 04:06:47;;;;;;;11.13;6.73;;;;;0.80;101884.00;;;;4909028;29;20236;-69
2022/03/10 04:09:33;;;;;;;13.37;6.70;;;;;0.80;101871.00;;;;4905685;29;20738;-69
2022/03/10 04:12:20;;;;;;;10.87;6.50;;;;;0.80;101872.00;;;;4908232;29;20233;-71
2022/03/10 04:15:07;;;;;;;13.47;6.67;;;;;0.80;101880.00;;;;4907924;29;20236;-69
2022/03/10 04:17:53;;;;;;;13.57;6.73;;;;;0.80;101879.00;;;;4908030;29;20241;-69
2022/03/10 04:20:41;;;;;;;14.27;6.90;;;;;1.00;101877.00;;;;4902357;29;20240;-66
2022/03/10 04:23:27;;;;;;;12.93;6.30;;;;;0.70;101884.00;;;;4900933;29;20249;-69
2022/03/10 04:26:13;;;;;;;18.37;7.13;;;;;0.90;101864.00;;;;4905449;29;20643;-69
2022/03/10 04:29:00;;;;;;;11.20;6.17;;;;;0.80;101865.00;;;;4896669;29;20253;-69
2022/03/10 04:31:46;;;;;;;14.70;7.00;;;;;0.90;101861.00;;;;4898482;29;20249;-69
2022/03/10 04:34:32;;;;;;;10.87;6.23;;;;;0.80;101860.00;;;;4901029;29;20229;-69
2022/03/10 04:37:20;;;;;;;14.53;7.53;;;;;0.80;101859.00;;;;4903358;29;21661;-69
2022/03/10 04:40:08;;;;;;;16.97;7.17;;;;;0.60;101846.00;;;;4894042;29;20236;-68
2022/03/10 04:42:55;;;;;;;11.30;6.20;;;;;0.70;101857.00;;;;4905152;29;20671;-70
2022/03/10 04:45:43;;;;;;;20.33;6.60;;;;;0.70;101852.00;;;;4904204;29;20233;-70
2022/03/10 04:48:30;;;;;;;14.43;5.67;;;;;0.90;101858.00;;;;4907753;29;20667;-70
2022/03/10 04:51:16;;;;;;;12.73;5.90;;;;;0.70;101849.00;;;;4908142;29;20284;-71
2022/03/10 04:54:04;;;;;;;11.13;5.93;;;;;0.50;101864.00;;;;4905336;29;20711;-69
2022/03/10 04:56:52;;;;;;;10.00;6.27;;;;;0.50;101857.00;;;;4904941;29;20224;-70
2022/03/10 04:59:38;;;;;;;14.33;7.40;;;;;0.50;101862.00;;;;4891136;29;20756;-68
2022/03/10 05:02:24;;;;;;;15.17;6.67;;;;;0.60;101870.00;;;;4894836;29;20685;-69
2022/03/10 05:05:12;;;;;;;12.43;6.50;;;;;0.70;101860.00;;;;4910432;29;20760;-68
2022/03/10 05:07:58;;;;;;;12.23;6.47;;;;;0.60;101870.00;;;;4902804;29;20238;-70
2022/03/10 05:10:46;;;;;;;15.67;6.33;;;;;0.60;101857.00;;;;4906915;29;20245;-70
2022/03/10 05:13:32;;;;;;;13.83;6.93;;;;;0.40;101873.00;;;;4899264;29;20237;-68
2022/03/10 05:16:18;;;;;;;11.57;6.47;;;;;0.50;101874.00;;;;4909815;29;20231;-69
2022/03/10 05:19:05;;;;;;;13.80;6.60;;;;;0.40;101869.00;;;;4906647;29;20860;-70
2022/03/10 05:21:53;;;;;;;13.13;6.40;;;;;0.40;101876.00;;;;4908143;29;20233;-69
2022/03/10 05:24:40;;;;;;;13.23;7.13;;;;;0.40;101878.00;;;;4909270;29;20248;-71
2022/03/10 05:27:28;;;;;;;15.47;7.13;;;;;0.40;101877.00;;;;4893452;29;20727;-70
2022/03/10 05:30:15;;;;;;;12.03;7.30;;;;;0.40;101881.00;;;;4906815;29;20748;-69
2022/03/10 05:33:02;;;;;;;11.70;6.53;;;;;0.40;101892.00;;;;4907208;29;20241;-66
2022/03/10 05:35:48;;;;;;;11.77;6.73;;;;;0.60;101882.00;;;;4915295;29;20358;-66
2022/03/10 05:38:34;;;;;;;13.90;6.83;;;;;0.40;101883.00;;;;4900475;29;20301;-70
2022/03/10 05:41:21;;;;;;;13.20;6.57;;;;;0.40;101891.00;;;;4907646;29;20236;-69
2022/03/10 05:44:08;;;;;;;12.43;6.50;;;;;0.40;101893.00;;;;4904327;29;20233;-70
2022/03/10 05:46:54;;;;;;;12.23;7.10;;;;;0.30;101895.00;;;;4903811;29;20233;-69
2022/03/10 05:49:41;;;;;;;13.50;6.70;;;;;0.30;101887.00;;;;4905931;29;20339;-69
2022/03/10 05:52:27;;;;;;;10.80;6.60;;;;;0.30;101887.00;;;;4904564;29;20229;-71
2022/03/10 05:55:13;;;;;;;13.43;6.67;;;;;0.50;101884.00;;;;4897856;29;20307;-69
2022/03/10 05:58:02;;;;;;;10.80;6.23;;;;;0.30;101888.00;;;;4907125;29;20288;-69
2022/03/10 06:00:50;;;;;;;8.70;6.27;;;;;0.40;101902.00;;;;4907479;29;20241;-70
2022/03/10 06:03:36;;;;;;;11.90;6.00;;;;;0.30;101902.00;;;;4903586;29;20232;-70
2022/03/10 06:06:22;;;;;;;10.80;6.10;;;;;0.30;101892.00;;;;4910146;29;20285;-69
2022/03/10 06:09:08;;;;;;;11.80;6.40;;;;;0.40;101904.00;;;;4911735;29;20233;-69
2022/03/10 06:11:55;;;;;;;13.37;7.10;;;;;0.40;101901.00;;;;4896550;29;20234;-68
2022/03/10 06:14:41;;;;;;;11.97;6.43;;;;;0.40;101908.00;;;;4895773;29;20359;-71
2022/03/10 06:17:30;;;;;;;12.37;5.67;;;;;0.30;101909.00;;;;4903239;29;20301;-69
2022/03/10 06:20:16;;;;;;;11.63;6.47;;;;;0.40;101911.00;;;;4907638;29;20317;-69
2022/03/10 06:23:02;;;;;;;11.93;6.50;;;;;0.40;101915.00;;;;4908723;29;20408;-70
2022/03/10 06:25:48;;;;;;;12.37;6.30;;;;;0.50;101911.00;;;;4892948;29;20326;-72
2022/03/10 06:28:34;;;;;;;15.30;6.33;;;;;0.50;101907.00;;;;4902209;29;20236;-71
2022/03/10 06:31:23;;;;;;;12.90;6.70;;;;;0.60;101920.00;;;;4911278;29;20329;-70
2022/03/10 06:34:11;;;;;;;10.37;6.07;;;;;0.50;101923.00;;;;4911734;29;20732;-69
2022/03/10 06:36:57;;;;;;;12.53;6.70;;;;;0.60;101916.00;;;;4911666;29;20930;-69
2022/03/10 06:39:43;;;;;;;11.67;6.20;;;;;0.70;101924.00;;;;4905005;29;20237;-70
2022/03/10 06:42:31;;;;;;;14.37;6.57;;;;;0.70;101921.00;;;;4907587;29;20289;-69
2022/03/10 06:45:18;;;;;;;12.33;6.60;;;;;0.70;101922.00;;;;4909052;29;20245;-70
2022/03/10 06:48:05;;;;;;;17.03;7.63;;;;;0.80;101932.00;;;;4911445;29;20240;-69
2022/03/10 06:50:53;;;;;;;13.00;6.53;;;;;0.70;101933.00;;;;4903671;29;20733;-70
2022/03/10 06:53:39;;;;;;;10.77;6.87;;;;;0.70;101944.00;;;;4908238;29;21063;-71
2022/03/10 06:56:26;;;;;;;13.03;6.93;;;;;0.90;101944.00;;;;4911474;29;20711;-70
2022/03/10 06:59:12;;;;;;;12.90;7.70;;;;;1.00;101943.00;;;;4911620;29;20249;-70
2022/03/10 07:01:58;;;;;;;15.97;8.07;;;;;1.10;101938.00;;;;4915936;29;20639;-70
2022/03/10 07:04:44;;;;;;;12.23;7.20;;;;;1.30;101945.00;;;;4903390;29;20331;-69
2022/03/10 07:07:32;;;;;;;13.73;6.53;;;;;1.40;101948.00;;;;4909120;29;20241;-70
2022/03/10 07:10:18;;;;;;;13.63;7.43;;;;;1.50;101944.00;;;;4908419;29;20249;-70
2022/03/10 07:13:04;;;;;;;16.00;7.63;;;;;1.60;101942.00;;;;4909337;29;20233;-72
2022/03/10 07:15:51;;;;;;;13.70;8.07;;;;;1.70;101942.00;;;;4908977;29;20365;-71
2022/03/10 07:18:37;;;;;;;16.57;7.40;;;;;1.90;101954.00;;;;4901745;29;20708;-73
2022/03/10 07:21:24;;;;;;;11.90;7.00;;;;;2.00;101960.00;;;;4910307;29;20240;-71
2022/03/10 07:24:14;;;;;;;15.57;7.50;;;;;2.20;101958.00;;;;4908433;29;21000;-72
2022/03/10 07:27:00;;;;;;;13.77;7.53;;;;;2.30;101950.00;;;;4911222;29;20293;-71
2022/03/10 07:29:46;;;;;;;14.70;8.00;;;;;2.40;101957.00;;;;4907356;29;20373;-71
2022/03/10 07:32:33;;;;;;;15.50;7.17;;;;;2.60;101954.00;;;;4901290;29;20321;-69
2022/03/10 07:35:19;;;;;;;14.47;6.97;;;;;2.70;101955.00;;;;4914968;29;20345;-70
2022/03/10 07:38:05;;;;;;;14.90;7.53;;;;;3.10;101947.00;;;;4909042;29;20245;-71
2022/03/10 07:40:54;;;;;;;13.03;7.00;;;;;3.20;101942.00;;;;4903307;29;20238;-70
2022/03/10 07:43:40;;;;;;;14.67;7.27;;;;;3.20;101956.00;;;;4895631;29;20237;-70
2022/03/10 07:46:27;;;;;;;12.90;7.50;;;;;3.40;101966.00;;;;4891514;29;20296;-70
2022/03/10 07:49:13;;;;;;;13.57;7.23;;;;;3.30;101953.00;;;;4904967;29;20707;-71
2022/03/10 07:51:59;;;;;;;15.93;7.53;;;;;3.50;101948.00;;;;4908131;29;20726;-71
2022/03/10 07:54:46;;;;;;;11.60;7.23;;;;;3.70;101945.00;;;;4909644;29;20241;-72
2022/03/10 07:57:34;;;;;;;14.53;7.23;;;;;3.70;101939.00;;;;4909842;29;20621;-72
2022/03/10 08:00:24;;;;;;;25.53;10.50;;;;;4.00;101942.00;;;;4907769;29;20320;-72
2022/03/10 08:03:10;;;;;;;17.60;8.57;;;;;4.10;101940.00;;;;4907603;29;20270;-73
2022/03/10 08:05:56;;;;;;;15.53;8.00;;;;;4.20;101946.00;;;;4907872;29;20244;-72
2022/03/10 08:08:43;;;;;;;18.50;7.10;;;;;4.30;101941.00;;;;4903287;29;20239;-71
2022/03/10 08:11:30;;;;;;;14.33;7.57;;;;;4.30;101949.00;;;;4906201;29;20307;-71
2022/03/10 08:14:17;;;;;;;14.53;7.07;;;;;4.50;101945.00;;;;4904338;29;20362;-72
2022/03/10 08:17:04;;;;;;;15.83;8.37;;;;;4.70;101937.00;;;;4907911;29;20289;-71
2022/03/10 08:19:50;;;;;;;16.10;8.30;;;;;4.90;101945.00;;;;4901792;29;21097;-72
2022/03/10 08:22:37;;;;;;;13.17;7.57;;;;;5.00;101944.00;;;;4900224;29;20680;-72
2022/03/10 08:25:23;;;;;;;17.47;9.10;;;;;5.10;101945.00;;;;4907822;29;20249;-71
2022/03/10 08:28:09;;;;;;;20.77;10.40;;;;;5.20;101951.00;;;;4909822;29;20608;-72
2022/03/10 08:30:57;;;;;;;21.97;10.20;;;;;5.40;101937.00;;;;4901578;29;20747;-72
2022/03/10 08:33:43;;;;;;;21.63;10.70;;;;;5.40;101932.00;;;;4901177;29;20233;-71
2022/03/10 08:36:31;;;;;;;16.97;8.67;;;;;5.40;101931.00;;;;4907752;29;20236;-72
2022/03/10 08:39:18;;;;;;;16.13;7.70;;;;;5.70;101925.00;;;;4909300;29;20236;-71
2022/03/10 08:42:05;;;;;;;19.37;8.53;;;;;5.80;101932.00;;;;4907661;29;20264;-72
2022/03/10 08:44:51;;;;;;;13.27;7.53;;;;;5.80;101929.00;;;;4898233;29;20764;-72
2022/03/10 08:47:42;;;;;;;15.37;7.90;;;;;5.90;101933.00;;;;4900467;29;20354;-72
2022/03/10 08:50:29;;;;;;;16.27;7.43;;;;;6.30;101926.00;;;;4908132;29;20346;-71
2022/03/10 08:53:15;;;;;;;17.47;7.93;;;;;6.40;101922.00;;;;4907404;29;20241;-70
2022/03/10 08:56:01;;;;;;;17.23;8.13;;;;;6.50;101926.00;;;;4908368;29;20301;-70
2022/03/10 08:58:47;;;;;;;15.57;8.17;;;;;6.60;101921.00;;;;4901207;29;20417;-72
2022/03/10 09:01:34;;;;;;;15.50;8.17;;;;;6.80;101924.00;;;;4906528;29;20238;-71
2022/03/10 09:04:21;;;;;;;20.47;8.57;;;;;7.20;101924.00;;;;4904446;29;20244;-71
2022/03/10 09:07:08;;;;;;;19.30;8.77;;;;;7.30;101931.00;;;;4895637;29;20241;-70
2022/03/10 09:09:55;;;;;;;18.97;8.43;;;;;7.40;101919.00;;;;4899646;29;20234;-70
2022/03/10 09:12:41;;;;;;;18.80;8.33;;;;;7.60;101916.00;;;;4898254;29;20329;-70
2022/03/10 09:15:27;;;;;;;15.90;8.73;;;;;7.80;101920.00;;;;4904822;29;20312;-71
2022/03/10 09:18:14;;;;;;;14.53;8.23;;;;;8.00;101916.00;;;;4900692;29;20283;-71
2022/03/10 09:21:02;;;;;;;18.13;9.00;;;;;8.30;101909.00;;;;4902636;29;20344;-71
2022/03/10 09:23:49;;;;;;;18.03;9.30;;;;;8.20;101918.00;;;;4899815;29;20287;-68
2022/03/10 09:26:35;;;;;;;17.50;8.73;;;;;8.20;101906.00;;;;4912811;29;20237;-71
2022/03/10 09:29:21;;;;;;;16.50;8.60;;;;;8.50;101914.00;;;;4913259;29;20796;-70
2022/03/10 09:32:08;;;;;;;17.73;8.87;;;;;8.70;101904.00;;;;4899108;29;20299;-72
2022/03/10 09:34:54;;;;;;;16.50;8.60;;;;;9.00;101908.00;;;;4910021;29;20230;-73
2022/03/10 09:37:42;;;;;;;17.53;9.27;;;;;9.20;101860.00;;;;4905523;29;20227;-70
2022/03/10 09:40:28;;;;;;;17.93;9.27;;;;;9.10;101898.00;;;;4909159;29;20599;-71
2022/03/10 09:43:14;;;;;;;16.70;9.30;;;;;9.30;101848.00;;;;4911725;29;20622;-71
2022/03/10 09:46:01;;;;;;;21.30;9.27;;;;;9.70;101889.00;;;;4906082;29;20237;-70
2022/03/10 09:48:48;;;;;;;17.90;9.90;;;;;9.90;101903.00;;;;4903651;29;20231;-71
2022/03/10 09:51:35;;;;;;;16.87;8.90;;;;;10.00;101886.00;;;;4912655;29;20962;-72
2022/03/10 09:54:22;;;;;;;18.67;9.87;;;;;10.10;101870.00;;;;4912560;29;20248;-73
2022/03/10 09:57:09;;;;;;;24.93;10.83;;;;;10.20;101865.00;;;;4906592;29;20225;-72
2022/03/10 09:59:59;;;;;;;23.83;9.40;;;;;10.50;101892.00;;;;4908813;29;20269;-73
2022/03/10 10:02:46;;;;;;;20.93;10.17;;;;;10.80;101874.00;;;;4905564;29;20366;-72
2022/03/10 10:05:34;;;;;;;21.80;9.87;;;;;11.10;101876.00;;;;4909739;29;20600;-72
2022/03/10 10:08:20;;;;;;;20.73;10.47;;;;;11.10;101870.00;;;;4909750;29;20237;-69
2022/03/10 10:11:09;;;;;;;20.40;10.00;;;;;11.40;101870.00;;;;4909677;29;20758;-73
2022/03/10 10:13:55;;;;;;;19.30;9.90;;;;;11.60;101880.00;;;;4904214;29;20237;-73
2022/03/10 10:16:47;;;;;;;20.57;10.80;;;;;11.80;101875.00;;;;4896089;29;20234;-72
2022/03/10 10:19:34;;;;;;;26.60;11.33;;;;;12.00;101877.00;;;;4891391;29;20269;-72
2022/03/10 10:22:40;;;;;;;24.97;12.03;;;;;12.30;101871.00;;;;4900188;29;20378;-75
2022/03/10 10:25:27;;;;;;;22.83;10.90;;;;;12.60;101877.00;;;;4893145;29;20592;-71
2022/03/10 10:28:37;;;;;;;20.33;11.20;;;;;12.90;101871.00;;;;4896318;29;20939;-71
2022/03/10 10:31:25;;;;;;;28.43;12.00;;;;;13.00;101873.00;;;;4899583;29;20237;-72
2022/03/10 10:34:12;;;;;;;21.80;10.50;;;;;13.10;101879.00;;;;4899655;29;20386;-74
2022/03/10 10:36:58;;;;;;;24.30;11.23;;;;;13.40;101869.00;;;;4894301;29;20288;-74
2022/03/10 10:39:52;;;;;;;23.87;10.93;;;;;13.50;101860.00;;;;4901835;29;20362;-74
2022/03/10 10:42:41;;;;;;;23.17;10.70;;;;;13.60;101862.00;;;;4908832;29;20278;-70
2022/03/10 10:45:31;;;;;;;23.47;12.57;;;;;13.80;101857.00;;;;4911018;29;20383;-71
2022/03/10 10:48:18;;;;;;;31.13;14.50;;;;;13.90;101863.00;;;;4908919;29;20652;-73
2022/03/10 10:51:05;;;;;;;22.17;12.03;;;;;14.20;101858.00;;;;4896961;29;20242;-71
2022/03/10 10:53:51;;;;;;;28.27;11.80;;;;;14.40;101862.00;;;;4902766;29;20229;-72
2022/03/10 10:56:46;;;;;;;22.93;11.67;;;;;14.50;101858.00;;;;4908303;29;20237;-69
2022/03/10 10:59:34;;;;;;;27.13;11.90;;;;;14.60;101854.00;;;;4904199;29;20323;-70
2022/03/10 11:02:27;;;;;;;24.60;11.53;;;;;14.80;101839.00;;;;4905656;29;20363;-70
2022/03/10 11:05:14;;;;;;;24.10;11.17;;;;;14.60;101830.00;;;;4905255;29;20231;-71
2022/03/10 11:08:00;;;;;;;18.93;10.50;;;;;14.80;101832.00;;;;4903839;29;20308;-71
2022/03/10 11:10:47;;;;;;;22.37;12.30;;;;;14.70;101831.00;;;;4901406;29;20284;-71
2022/03/10 11:13:39;;;;;;;20.60;10.77;;;;;15.00;101825.00;;;;4907789;29;21278;-71
2022/03/10 11:16:26;;;;;;;21.70;11.47;;;;;15.20;101816.00;;;;4903084;29;20797;-71
2022/03/10 11:19:15;;;;;;;24.17;12.23;;;;;15.30;101823.00;;;;4907128;29;20233;-70
2022/03/10 11:22:12;;;;;;;20.53;10.97;;;;;15.20;101820.00;;;;4900074;29;20244;-70
2022/03/10 11:25:31;;;;;;;21.50;11.30;;;;;15.30;101825.00;;;;4904850;29;20252;-69
2022/03/10 11:28:21;;;;;;;21.60;11.47;;;;;15.60;101817.00;;;;4897787;29;20238;-67
2022/03/10 11:31:09;;;;;;;23.77;11.63;;;;;15.70;101815.00;;;;4899776;29;20293;-67
2022/03/10 11:33:55;;;;;;;24.77;11.50;;;;;16.00;101820.00;;;;4897578;29;20748;-67
2022/03/10 11:36:43;;;;;;;22.63;11.93;;;;;16.10;101815.00;;;;4899235;29;20231;-66
2022/03/10 11:39:29;;;;;;;23.83;11.67;;;;;16.20;101815.00;;;;4910415;29;20244;-68
2022/03/10 11:42:26;;;;;;;29.23;13.47;;;;;16.50;101818.00;;;;4908334;29;20240;-69
2022/03/10 11:45:17;;;;;;;22.97;11.93;;;;;16.60;101808.00;;;;4910393;29;20798;-73
2022/03/10 11:48:33;;;;;;;23.83;12.63;;;;;16.70;101810.00;;;;4905344;29;20245;-72
2022/03/10 11:51:19;;;;;;;23.63;12.50;;;;;16.90;101801.00;;;;4903280;29;20735;-73
2022/03/10 11:54:08;;;;;;;28.27;11.87;;;;;16.80;101799.00;;;;4907499;29;20242;-69
2022/03/10 11:57:03;;;;;;;21.47;10.83;;;;;16.70;101780.00;;;;4896301;29;20237;-72
2022/03/10 11:59:50;;;;;;;24.70;12.10;;;;;17.00;101792.00;;;;4892988;29;20233;-73
2022/03/10 12:02:46;;;;;;;22.90;12.13;;;;;17.10;101800.00;;;;4908802;29;20238;-71
2022/03/10 12:05:53;;;;;;;25.10;11.67;;;;;17.20;101791.00;;;;4902063;29;20736;-71
2022/03/10 12:08:40;;;;;;;25.07;11.90;;;;;17.10;101791.00;;;;4904207;29;20244;-70
2022/03/10 12:11:47;;;;;;;24.07;12.03;;;;;17.20;101782.00;;;;4906958;29;20241;-71
2022/03/10 12:14:36;;;;;;;22.63;11.00;;;;;17.50;101785.00;;;;4907455;29;20240;-73
2022/03/10 12:17:49;;;;;;;25.80;11.53;;;;;17.70;101783.00;;;;4910292;29;20369;-70
2022/03/10 12:20:40;;;;;;;22.03;11.57;;;;;17.80;101782.00;;;;4908430;29;20253;-71
2022/03/10 12:23:29;;;;;;;21.20;11.47;;;;;17.80;101779.00;;;;4908513;29;20369;-71
2022/03/10 12:26:24;;;;;;;21.27;11.13;;;;;18.10;101775.00;;;;4909295;29;20465;-72
2022/03/10 12:29:13;;;;;;;19.53;10.50;;;;;18.10;101777.00;;;;4902931;29;20313;-71
2022/03/10 12:32:05;;;;;;;21.43;10.53;;;;;18.10;101737.00;;;;4902232;29;20631;-71
2022/03/10 12:34:53;;;;;;;20.53;10.10;;;;;18.20;101770.00;;;;4901061;29;20254;-72
2022/03/10 12:37:39;;;;;;;20.53;10.57;;;;;18.20;101745.00;;;;4900409;29;20229;-72
2022/03/10 12:40:27;;;;;;;20.97;10.43;;;;;18.20;101759.00;;;;4904063;29;20620;-72
2022/03/10 12:43:14;;;;;;;19.70;9.63;;;;;18.40;101748.00;;;;4903148;29;20324;-71
2022/03/10 12:46:02;;;;;;;16.87;9.20;;;;;18.50;101760.00;;;;4900260;29;20234;-73
2022/03/10 12:49:01;;;;;;;16.53;8.93;;;;;18.40;101767.00;;;;4904185;29;20241;-72
2022/03/10 12:51:48;;;;;;;21.93;9.70;;;;;18.40;101758.00;;;;4903755;29;20716;-70
2022/03/10 12:54:37;;;;;;;18.07;9.40;;;;;18.60;101749.00;;;;4903533;29;20243;-72
2022/03/10 12:57:23;;;;;;;19.00;8.87;;;;;18.90;101749.00;;;;4905469;29;20234;-71
2022/03/10 13:00:21;;;;;;;19.23;9.10;;;;;19.10;101748.00;;;;4905876;29;20309;-70
2022/03/10 13:03:10;;;;;;;14.50;7.97;;;;;19.00;101736.00;;;;4905852;29;20233;-71
2022/03/10 13:05:56;;;;;;;19.17;8.00;;;;;18.90;101733.00;;;;4904504;29;20289;-70
2022/03/10 13:08:49;;;;;;;17.20;7.10;;;;;18.80;101741.00;;;;4910555;29;20242;-68
2022/03/10 13:11:38;;;;;;;10.70;6.63;;;;;19.00;101724.00;;;;4912951;29;20880;-69
2022/03/10 13:14:30;;;;;;;15.07;7.90;;;;;19.20;101726.00;;;;4910849;29;20713;-69
2022/03/10 13:17:16;;;;;;;18.03;8.50;;;;;19.40;101716.00;;;;4910683;29;20238;-68
2022/03/10 13:20:09;;;;;;;15.17;8.87;;;;;19.40;101712.00;;;;4902596;29;20243;-68
2022/03/10 13:22:57;;;;;;;20.10;9.30;;;;;19.50;101718.00;;;;4903894;29;20246;-69
2022/03/10 13:25:44;;;;;;;14.77;7.53;;;;;19.50;101727.00;;;;4911212;29;20252;-70
2022/03/10 13:28:32;;;;;;;12.93;7.53;;;;;19.60;101715.00;;;;4910800;29;20267;-70
2022/03/10 13:31:19;;;;;;;13.63;6.87;;;;;19.50;101721.00;;;;4911212;29;20242;-69
2022/03/10 13:34:05;;;;;;;15.13;8.53;;;;;19.60;101717.00;;;;4904809;29;20620;-70
2022/03/10 13:36:53;;;;;;;18.40;7.93;;;;;19.50;101708.00;;;;4910928;29;20799;-69
2022/03/10 13:39:40;;;;;;;14.10;8.03;;;;;19.50;101705.00;;;;4913659;29;20640;-69
2022/03/10 13:42:31;;;;;;;11.30;6.93;;;;;19.70;101699.00;;;;4908992;29;20556;-70
2022/03/10 13:45:18;;;;;;;10.03;6.60;;;;;19.80;101700.00;;;;4906120;29;20236;-70
2022/03/10 13:48:04;;;;;;;10.57;6.50;;;;;19.90;101698.00;;;;4903922;29;20750;-69
2022/03/10 13:50:52;;;;;;;12.23;6.40;;;;;20.00;101693.00;;;;4910400;29;20252;-68